Time;durP1;ratioP1;P1;durP2;ratioP2;P2;SDS_P1;SDS_P2;PMS_P1;PMS_P2;Temp;Humidity;BMP_temperature;BMP_pressure;BME280_temperature;BME280_humidity;BME280_pressure;Samples;Min_cycle;Max_cycle;Signal;HPM_P1;HPM_P2
2023/01/11 00:01:12;;;;;;;2.97;1.00;;;13.20;99.90;;;;;;5047468;28;20291;-30
2023/01/11 00:03:44;;;;;;;3.13;1.20;;;13.20;99.90;;;;;;5047176;28;20216;-30
2023/01/11 00:06:12;;;;;;;2.73;1.00;;;13.30;99.90;;;;;;5045846;28;20266;-30
2023/01/11 00:08:41;;;;;;;3.10;1.00;;;13.30;99.90;;;;;;5046317;28;20291;-30
2023/01/11 00:11:15;;;;;;;2.30;1.00;;;13.30;99.90;;;;;;5047030;28;20211;-30
2023/01/11 00:13:46;;;;;;;3.30;1.20;;;13.30;99.90;;;;;;5047455;28;20254;-30
2023/01/11 00:16:13;;;;;;;1.60;0.90;;;13.30;99.90;;;;;;5047598;28;20620;-30
2023/01/11 00:18:44;;;;;;;4.33;1.40;;;13.30;99.90;;;;;;5045750;28;20250;-30
2023/01/11 00:21:21;;;;;;;3.83;1.20;;;13.40;99.90;;;;;;5047887;28;20209;-30
2023/01/11 00:23:50;;;;;;;3.77;1.27;;;13.40;99.90;;;;;;5030789;28;20275;-30
2023/01/11 00:26:23;;;;;;;1.80;1.10;;;13.40;99.90;;;;;;5047862;28;20640;-30
2023/01/11 00:28:53;;;;;;;2.27;1.20;;;13.40;99.90;;;;;;5047328;28;20298;-30
2023/01/11 00:31:22;;;;;;;2.90;1.30;;;13.40;99.90;;;;;;5048270;28;20196;-30
2023/01/11 00:33:49;;;;;;;4.80;1.40;;;13.50;99.90;;;;;;5047586;28;20764;-30
2023/01/11 00:36:19;;;;;;;4.23;1.30;;;13.50;99.90;;;;;;5046237;28;20201;-30
2023/01/11 00:38:52;;;;;;;2.97;1.20;;;13.50;99.90;;;;;;5047280;28;20223;-30
2023/01/11 00:49:43;;;;;;;2.30;1.20;;;13.50;99.90;;;;;;5047320;28;20608;-30
2023/01/11 00:52:13;;;;;;;2.17;0.90;;;13.50;99.90;;;;;;5006791;28;1123890;-30
2023/01/11 00:54:49;;;;;;;2.53;1.30;;;13.50;99.90;;;;;;5046476;28;20211;-30
2023/01/11 00:57:16;;;;;;;2.87;1.10;;;13.50;99.90;;;;;;5048163;28;20292;-30
2023/01/11 00:59:43;;;;;;;1.87;0.90;;;13.50;99.90;;;;;;5047644;28;20599;-30
2023/01/11 01:02:13;;;;;;;3.20;1.23;;;13.50;99.90;;;;;;5048158;28;20189;-30
2023/01/11 01:04:40;;;;;;;3.27;1.17;;;13.60;99.90;;;;;;5048047;28;20239;-30
2023/01/11 01:07:08;;;;;;;3.17;1.20;;;13.60;99.90;;;;;;5048192;28;20692;-30
2023/01/11 01:09:35;;;;;;;3.00;1.13;;;13.60;99.90;;;;;;5047841;28;20192;-30
2023/01/11 01:12:02;;;;;;;2.53;1.47;;;13.60;99.90;;;;;;5047884;28;20200;-30
2023/01/11 01:14:32;;;;;;;3.80;1.20;;;13.60;99.90;;;;;;5047593;28;20283;-30
2023/01/11 01:17:07;;;;;;;2.30;1.10;;;13.60;99.90;;;;;;5046550;28;20204;-30
2023/01/11 01:19:37;;;;;;;1.60;0.97;;;13.60;99.90;;;;;;5047304;28;20601;-30
2023/01/11 01:22:07;;;;;;;2.03;0.97;;;13.70;99.90;;;;;;5047012;28;20227;-30
2023/01/11 01:24:37;;;;;;;2.47;0.87;;;13.70;99.90;;;;;;5047688;28;20216;-30
2023/01/11 01:27:04;;;;;;;1.13;0.80;;;13.70;99.90;;;;;;5048018;28;20201;-30
2023/01/11 01:29:33;;;;;;;1.27;0.90;;;13.70;99.90;;;;;;5047902;28;20201;-30
2023/01/11 01:32:05;;;;;;;1.53;0.80;;;13.70;99.90;;;;;;5047236;28;20244;-30
2023/01/11 01:34:37;;;;;;;3.33;0.90;;;13.70;99.90;;;;;;5047320;28;20683;-30
2023/01/11 01:37:05;;;;;;;2.37;0.70;;;13.70;99.90;;;;;;5047506;28;20585;-30
2023/01/11 01:39:37;;;;;;;1.47;0.50;;;13.70;99.90;;;;;;5046993;28;20228;-30
2023/01/11 01:42:13;;;;;;;4.53;0.90;;;13.70;99.90;;;;;;5045647;28;20266;-30
2023/01/11 01:44:49;;;;;;;2.37;0.80;;;13.70;99.90;;;;;;5047253;28;20369;-30
2023/01/11 01:47:17;;;;;;;1.93;0.80;;;13.80;99.90;;;;;;5047167;28;20204;-30
2023/01/11 01:49:45;;;;;;;1.03;0.43;;;13.80;99.90;;;;;;5046013;28;20303;-30
2023/01/11 01:52:14;;;;;;;2.77;0.80;;;13.80;99.90;;;;;;5047062;28;20235;-30
2023/01/11 01:54:45;;;;;;;1.83;0.67;;;13.80;99.90;;;;;;5047323;28;20212;-30
2023/01/11 01:57:26;;;;;;;0.70;0.50;;;13.80;99.90;;;;;;5046626;28;20226;-30
2023/01/11 02:00:04;;;;;;;2.07;0.63;;;13.80;99.90;;;;;;5053540;28;20212;-30
2023/01/11 02:02:36;;;;;;;0.67;0.47;;;13.80;99.90;;;;;;5046741;28;20282;-30
2023/01/11 02:05:04;;;;;;;1.20;0.70;;;13.80;99.90;;;;;;5046702;28;20739;-30
2023/01/11 02:07:35;;;;;;;1.37;0.60;;;13.80;99.90;;;;;;5046198;28;20206;-30
2023/01/11 02:10:06;;;;;;;1.03;0.60;;;13.80;99.90;;;;;;5046565;28;20273;-30
2023/01/11 02:12:45;;;;;;;1.27;0.70;;;13.80;99.90;;;;;;5046323;28;20212;-30
2023/01/11 02:15:16;;;;;;;1.17;0.50;;;13.80;99.90;;;;;;5045342;28;20768;-30
2023/01/11 02:17:44;;;;;;;1.37;0.50;;;13.80;99.90;;;;;;5046618;28;20196;-30
2023/01/11 02:21:07;;;;;;;1.43;0.60;;;13.80;99.90;;;;;;5043506;28;20196;-30
2023/01/11 02:23:51;;;;;;;1.47;0.50;;;13.90;99.90;;;;;;5064739;28;20203;-30
2023/01/11 02:26:33;;;;;;;0.83;0.40;;;13.90;99.90;;;;;;5063183;28;20204;-30
2023/01/11 02:29:17;;;;;;;1.73;0.90;;;13.80;99.90;;;;;;5050512;28;20220;-30
2023/01/11 02:32:24;;;;;;;0.47;0.33;;;13.90;99.90;;;;;;5046474;28;20285;-30
2023/01/11 02:35:06;;;;;;;0.97;0.50;;;13.90;99.90;;;;;;5045033;28;20212;-30
2023/01/11 02:37:59;;;;;;;1.30;0.50;;;13.90;99.90;;;;;;5045987;28;20278;-30
2023/01/11 02:40:32;;;;;;;1.30;0.63;;;13.90;99.90;;;;;;5046176;28;20227;-30
2023/01/11 02:46:31;;;;;;;0.63;0.33;;;13.90;99.90;;;;;;5046446;28;20294;-30
2023/01/11 02:49:04;;;;;;;2.20;0.50;;;14.00;99.90;;;;;;5046275;28;20200;-30
2023/01/11 02:51:52;;;;;;;1.33;0.40;;;13.90;99.90;;;;;;5046323;28;20271;-30
2023/01/11 02:54:21;;;;;;;1.47;0.50;;;14.00;99.90;;;;;;5046200;28;20199;-30
2023/01/11 02:56:55;;;;;;;0.97;0.40;;;14.00;99.90;;;;;;5045958;28;20781;-30
2023/01/11 02:59:30;;;;;;;1.30;0.50;;;14.00;99.90;;;;;;5045950;28;20220;-30
2023/01/11 03:02:00;;;;;;;1.60;0.57;;;13.90;99.90;;;;;;5046427;28;20616;-30
2023/01/11 03:04:32;;;;;;;0.90;0.50;;;14.00;99.90;;;;;;5046505;28;20697;-30
2023/01/11 03:07:26;;;;;;;0.50;0.40;;;14.00;99.90;;;;;;5044857;28;20780;-30
2023/01/11 03:10:14;;;;;;;0.90;0.30;;;14.00;99.90;;;;;;5046149;28;20713;-30
2023/01/11 03:13:27;;;;;;;1.27;0.40;;;14.00;99.90;;;;;;5046165;28;20242;-30
2023/01/11 03:16:09;;;;;;;0.60;0.40;;;14.10;99.90;;;;;;5043278;28;20722;-30
2023/01/11 03:18:55;;;;;;;0.60;0.30;;;14.00;99.90;;;;;;5046032;28;20212;-30
2023/01/11 03:21:46;;;;;;;0.90;0.30;;;14.00;99.90;;;;;;5045904;28;20204;-30
2023/01/11 03:24:13;;;;;;;0.93;0.40;;;14.00;99.90;;;;;;5044965;28;20399;-30
2023/01/11 03:26:55;;;;;;;0.57;0.23;;;14.00;99.90;;;;;;5046087;28;20231;-30
2023/01/11 03:29:55;;;;;;;0.90;0.37;;;14.10;99.90;;;;;;5045864;28;20212;-30
2023/01/11 03:33:05;;;;;;;0.50;0.40;;;14.10;99.90;;;;;;5045512;28;20204;-30
2023/01/11 03:36:12;;;;;;;0.47;0.20;;;14.10;99.90;;;;;;5042663;28;20211;-30
2023/01/11 03:38:54;;;;;;;0.80;0.40;;;14.10;99.90;;;;;;5045650;28;20220;-30
2023/01/11 03:41:28;;;;;;;0.50;0.40;;;14.10;99.90;;;;;;5045274;28;20204;-30
2023/01/11 03:43:58;;;;;;;1.07;0.30;;;14.10;99.90;;;;;;5045187;28;20196;-30
2023/01/11 03:46:33;;;;;;;0.30;0.30;;;14.10;99.90;;;;;;5048374;28;20204;-30
2023/01/11 03:49:11;;;;;;;0.70;0.30;;;14.10;99.90;;;;;;5048938;28;20204;-30
2023/01/11 03:51:45;;;;;;;0.77;0.30;;;14.10;99.90;;;;;;5048893;28;20802;-30
2023/01/11 03:54:20;;;;;;;0.60;0.20;;;14.10;99.90;;;;;;5048967;28;20207;-30
2023/01/11 03:57:04;;;;;;;0.57;0.30;;;14.10;99.90;;;;;;5047603;28;20726;-30
2023/01/11 03:59:34;;;;;;;0.53;0.30;;;14.10;99.90;;;;;;5048505;28;20220;-30
2023/01/11 04:02:06;;;;;;;0.30;0.20;;;14.10;99.90;;;;;;5048833;28;20213;-30
2023/01/11 04:04:35;;;;;;;0.20;0.20;;;14.10;99.90;;;;;;5048367;28;20196;-30
2023/01/11 04:07:02;;;;;;;0.27;0.20;;;14.10;99.90;;;;;;5048581;28;20196;-30
2023/01/11 04:09:29;;;;;;;1.77;0.30;;;14.10;99.90;;;;;;5048496;28;20683;-30
2023/01/11 04:11:59;;;;;;;0.40;0.20;;;14.10;99.90;;;;;;5048462;28;20200;-30
2023/01/11 04:14:28;;;;;;;1.23;0.30;;;14.20;99.90;;;;;;5048290;28;20220;-30
2023/01/11 04:17:00;;;;;;;0.30;0.20;;;14.20;99.90;;;;;;5048587;28;20261;-29
2023/01/11 04:19:27;;;;;;;1.40;0.20;;;14.20;99.90;;;;;;5048423;28;20318;-30
2023/01/11 04:21:57;;;;;;;0.30;0.30;;;14.20;99.90;;;;;;5048162;28;20196;-30
2023/01/11 04:24:26;;;;;;;1.87;0.50;;;14.10;99.90;;;;;;5048526;28;20229;-30
2023/01/11 04:26:56;;;;;;;0.57;0.30;;;14.20;99.90;;;;;;5047172;28;20212;-30
2023/01/11 04:29:27;;;;;;;0.10;0.10;;;14.20;99.90;;;;;;5048419;28;20231;-30
2023/01/11 04:31:56;;;;;;;0.30;0.27;;;14.20;99.90;;;;;;5048431;28;20204;-30
2023/01/11 04:34:26;;;;;;;0.30;0.20;;;14.20;99.90;;;;;;5048510;28;20232;-29
2023/01/11 04:36:53;;;;;;;1.13;0.27;;;14.20;99.90;;;;;;5048204;28;20303;-30
2023/01/11 04:39:23;;;;;;;0.30;0.30;;;14.20;99.90;;;;;;5047906;28;20690;-30
2023/01/11 04:44:38;;;;;;;0.40;0.23;;;14.20;99.90;;;;;;5047970;28;20266;-30
2023/01/11 04:47:09;;;;;;;0.20;0.20;;;14.30;99.90;;;;;;5047835;28;20705;-30
2023/01/11 04:49:39;;;;;;;0.53;0.30;;;14.20;99.90;;;;;;5047880;28;20223;-30
2023/01/11 04:52:08;;;;;;;1.87;0.30;;;14.20;99.90;;;;;;5047492;28;20843;-30
2023/01/11 04:54:35;;;;;;;1.27;0.53;;;14.30;99.90;;;;;;5047851;28;20196;-31
2023/01/11 04:57:06;;;;;;;0.63;0.30;;;14.30;99.90;;;;;;5046754;28;20207;-30
2023/01/11 04:59:40;;;;;;;1.63;0.30;;;14.30;99.90;;;;;;5047644;28;20339;-30
2023/01/11 05:02:07;;;;;;;0.47;0.23;;;14.30;99.90;;;;;;5048265;28;20665;-30
2023/01/11 05:04:34;;;;;;;0.23;0.20;;;14.30;99.90;;;;;;5047746;28;20231;-30
2023/01/11 05:07:01;;;;;;;0.70;0.30;;;14.30;99.90;;;;;;5048466;28;20528;-30
2023/01/11 05:09:29;;;;;;;0.60;0.20;;;14.30;99.90;;;;;;5047720;28;20204;-30
2023/01/11 05:11:56;;;;;;;0.93;0.20;;;14.30;99.90;;;;;;5046828;28;20263;-30
2023/01/11 05:14:23;;;;;;;0.40;0.20;;;14.30;99.90;;;;;;5048090;28;20270;-30
2023/01/11 05:16:50;;;;;;;1.70;0.30;;;14.30;99.90;;;;;;5047495;28;20200;-30
2023/01/11 05:19:22;;;;;;;0.63;0.20;;;14.30;99.90;;;;;;5047348;28;20267;-30
2023/01/11 05:21:50;;;;;;;1.13;0.30;;;14.30;99.90;;;;;;5047584;28;20213;-30
2023/01/11 05:24:21;;;;;;;0.50;0.20;;;14.20;99.90;;;;;;5047920;28;20291;-30
2023/01/11 05:26:49;;;;;;;1.93;0.40;;;14.20;99.90;;;;;;5047673;28;20331;-30
2023/01/11 05:29:18;;;;;;;1.80;0.53;;;14.20;99.90;;;;;;5047963;28;20685;-30
2023/01/11 05:31:47;;;;;;;3.77;0.80;;;14.20;99.90;;;;;;5048115;28;20198;-30
2023/01/11 05:34:16;;;;;;;2.03;0.70;;;14.30;99.90;;;;;;5062501;28;20200;-30
2023/01/11 05:36:44;;;;;;;2.37;0.90;;;14.20;99.90;;;;;;5048013;28;20231;-30
2023/01/11 05:39:12;;;;;;;5.53;1.03;;;14.20;99.90;;;;;;5047344;28;20623;-30
2023/01/11 05:41:39;;;;;;;4.00;0.80;;;14.20;99.90;;;;;;5047275;28;20691;-30
2023/01/11 05:46:56;;;;;;;1.73;1.00;;;14.10;99.90;;;;;;5047408;28;20274;-30
2023/01/11 05:49:25;;;;;;;2.13;0.90;;;14.00;99.90;;;;;;5062254;28;20204;-30
2023/01/11 05:51:52;;;;;;;4.97;1.03;;;14.10;99.90;;;;;;5046588;28;20267;-30
2023/01/11 05:54:19;;;;;;;3.43;1.20;;;14.10;99.90;;;;;;5047171;28;20306;-30
2023/01/11 05:56:49;;;;;;;4.40;1.37;;;14.00;99.90;;;;;;5047209;28;20220;-30
2023/01/11 05:59:16;;;;;;;3.10;1.10;;;14.00;99.90;;;;;;5046203;28;20643;-30
2023/01/11 06:01:46;;;;;;;4.37;1.40;;;13.90;99.90;;;;;;5061713;28;20196;-30
2023/01/11 06:04:13;;;;;;;3.47;1.40;;;14.00;99.90;;;;;;5061656;28;20204;-30
2023/01/11 06:06:42;;;;;;;6.13;1.30;;;13.90;99.90;;;;;;5046669;28;20196;-30
2023/01/11 06:09:10;;;;;;;6.03;1.60;;;13.90;99.90;;;;;;5060936;28;20224;-30
2023/01/11 06:11:39;;;;;;;6.57;1.50;;;13.90;99.90;;;;;;5046459;28;20570;-30
2023/01/11 06:14:06;;;;;;;4.77;1.47;;;13.90;99.90;;;;;;5046133;28;20258;-30
2023/01/11 06:16:36;;;;;;;5.60;1.50;;;13.90;99.90;;;;;;5061070;28;20227;-30
2023/01/11 06:19:05;;;;;;;7.17;1.57;;;13.90;99.90;;;;;;5046327;28;20231;-30
2023/01/11 06:21:34;;;;;;;6.00;1.60;;;13.90;99.90;;;;;;5046090;28;20208;-30
2023/01/11 06:24:01;;;;;;;7.03;1.60;;;13.90;99.90;;;;;;5045983;28;20315;-30
2023/01/11 06:26:31;;;;;;;7.77;1.70;;;13.90;99.90;;;;;;5046283;28;20204;-30
2023/01/11 06:28:58;;;;;;;11.57;2.10;;;13.80;99.90;;;;;;5046249;28;20358;-30
2023/01/11 06:31:25;;;;;;;8.17;2.17;;;13.80;99.90;;;;;;5045992;28;20690;-30
2023/01/11 06:33:52;;;;;;;6.40;1.97;;;13.70;99.90;;;;;;5046312;28;20224;-30
2023/01/11 06:36:22;;;;;;;10.63;2.53;;;13.70;99.90;;;;;;5046355;28;20290;-30
2023/01/11 06:38:52;;;;;;;10.67;1.97;;;13.60;99.90;;;;;;5046172;28;20199;-30
2023/01/11 06:41:19;;;;;;;9.33;2.20;;;13.60;99.90;;;;;;5046245;28;20204;-30
2023/01/11 06:43:51;;;;;;;7.47;1.80;;;13.60;99.90;;;;;;5046152;28;20284;-30
2023/01/11 06:46:21;;;;;;;10.77;2.40;;;13.60;99.90;;;;;;5046240;28;20649;-30
2023/01/11 06:48:48;;;;;;;8.80;2.10;;;13.60;99.90;;;;;;5045781;28;20282;-30
2023/01/11 06:51:16;;;;;;;11.40;2.50;;;13.60;99.90;;;;;;5045906;28;20288;-31
2023/01/11 06:53:45;;;;;;;9.80;2.03;;;13.60;99.90;;;;;;5046433;28;20200;-30
2023/01/11 06:56:15;;;;;;;12.17;2.83;;;13.50;99.90;;;;;;5046061;28;20304;-30
2023/01/11 06:58:45;;;;;;;13.27;2.90;;;13.50;99.90;;;;;;5045858;28;20250;-30
2023/01/11 07:01:14;;;;;;;8.57;2.80;;;13.50;99.90;;;;;;5045961;28;20223;-30
2023/01/11 07:03:41;;;;;;;15.00;3.03;;;13.50;99.90;;;;;;5046014;28;20261;-30
2023/01/11 07:06:09;;;;;;;15.83;3.57;;;13.50;99.90;;;;;;5046118;28;20208;-30
2023/01/11 07:08:37;;;;;;;12.10;2.70;;;13.50;99.90;;;;;;5046003;28;20192;-30
2023/01/11 07:11:07;;;;;;;13.07;3.10;;;13.40;99.90;;;;;;5046427;28;20271;-30
2023/01/11 07:13:37;;;;;;;14.87;2.80;;;13.40;99.90;;;;;;5045911;28;20705;-30
2023/01/11 07:16:04;;;;;;;10.63;3.13;;;13.40;99.90;;;;;;5045588;28;20208;-30
2023/01/11 07:18:32;;;;;;;15.77;2.90;;;13.30;99.90;;;;;;5045978;28;20200;-30
2023/01/11 07:21:04;;;;;;;16.80;3.60;;;13.30;99.90;;;;;;5049181;28;20315;-30
2023/01/11 07:23:31;;;;;;;12.60;3.13;;;13.30;99.90;;;;;;5049649;28;20722;-30
2023/01/11 07:25:58;;;;;;;12.17;3.27;;;13.30;99.90;;;;;;5049772;28;20250;-30
2023/01/11 07:28:29;;;;;;;10.23;2.30;;;13.20;99.90;;;;;;5049503;28;20545;-30
2023/01/11 07:30:57;;;;;;;13.07;2.73;;;13.20;99.90;;;;;;5049775;28;20207;-30
2023/01/11 07:33:26;;;;;;;14.33;3.13;;;13.10;99.90;;;;;;5049040;28;20745;-30
2023/01/11 07:35:57;;;;;;;12.70;3.40;;;13.20;99.90;;;;;;5049958;28;20230;-30
2023/01/11 07:38:29;;;;;;;18.53;3.53;;;13.10;99.90;;;;;;5048136;28;20196;-30
2023/01/11 07:40:59;;;;;;;13.47;2.90;;;13.10;99.90;;;;;;5064103;28;20251;-30
2023/01/11 07:43:32;;;;;;;13.07;2.73;;;13.00;99.90;;;;;;5049346;28;20195;-30
2023/01/11 07:46:01;;;;;;;12.23;2.77;;;13.00;99.90;;;;;;5049674;28;20239;-30
2023/01/11 07:48:31;;;;;;;13.40;2.77;;;12.90;99.90;;;;;;5064130;28;20312;-30
2023/01/11 07:51:00;;;;;;;12.10;2.93;;;12.90;99.90;;;;;;5049909;28;20200;-30
2023/01/11 07:53:32;;;;;;;11.23;2.43;;;12.90;99.90;;;;;;5064148;28;20236;-31
2023/01/11 07:55:59;;;;;;;13.93;3.00;;;12.80;99.90;;;;;;5048696;28;20200;-30
2023/01/11 07:58:30;;;;;;;15.37;2.97;;;12.70;99.90;;;;;;5048834;28;20216;-31
2023/01/11 08:01:00;;;;;;;17.17;3.10;;;12.70;99.90;;;;;;5048423;28;20335;-31
2023/01/11 08:03:27;;;;;;;12.60;2.90;;;12.70;99.90;;;;;;5048277;28;20203;-31
2023/01/11 08:05:54;;;;;;;17.03;3.07;;;12.70;99.90;;;;;;5063220;28;20277;-31
2023/01/11 08:08:22;;;;;;;18.20;3.10;;;12.70;99.90;;;;;;5048534;28;20548;-31
2023/01/11 08:16:20;;;;;;;10.87;2.33;;;12.60;99.90;;;;;;5047949;28;20204;-30
2023/01/11 08:18:52;;;;;;;20.47;3.33;;;12.60;99.90;;;;;;5048402;28;20211;-31
2023/01/11 08:21:20;;;;;;;13.37;3.17;;;12.50;99.90;;;;;;5048057;28;20290;-31
2023/01/11 08:23:47;;;;;;;13.80;3.10;;;12.50;99.90;;;;;;5048670;28;20227;-30
2023/01/11 08:26:17;;;;;;;15.93;3.20;;;12.50;99.90;;;;;;5048243;28;20204;-31
2023/01/11 08:28:46;;;;;;;13.97;2.80;;;12.50;99.90;;;;;;5047948;28;20200;-30
2023/01/11 08:31:16;;;;;;;15.27;3.20;;;12.50;99.90;;;;;;5047859;28;20281;-30
2023/01/11 08:33:43;;;;;;;11.93;3.13;;;12.50;99.90;;;;;;5048025;28;20289;-31
2023/01/11 08:36:13;;;;;;;19.73;3.40;;;12.50;99.90;;;;;;5062726;28;20246;-31
2023/01/11 08:38:40;;;;;;;13.87;2.53;;;12.40;99.90;;;;;;5047917;28;20543;-31
2023/01/11 08:41:10;;;;;;;11.97;2.60;;;12.40;99.90;;;;;;5047784;28;20227;-31
2023/01/11 08:43:39;;;;;;;15.70;3.03;;;12.40;99.90;;;;;;5046404;28;20247;-31
2023/01/11 08:46:09;;;;;;;20.50;3.00;;;12.40;99.90;;;;;;5048015;28;20224;-31
2023/01/11 08:48:36;;;;;;;14.13;3.27;;;12.30;99.90;;;;;;5048393;28;20297;-30
2023/01/11 08:51:04;;;;;;;13.10;2.47;;;12.30;99.90;;;;;;5048263;28;20281;-31
2023/01/11 08:53:33;;;;;;;13.53;3.23;;;12.30;99.90;;;;;;5048431;28;20672;-31
2023/01/11 08:56:01;;;;;;;17.50;3.17;;;12.20;99.90;;;;;;5029866;28;20287;-31
2023/01/11 08:58:33;;;;;;;12.53;2.97;;;12.20;99.90;;;;;;5047801;28;20223;-31
2023/01/11 09:01:02;;;;;;;13.83;2.40;;;12.20;99.90;;;;;;5047761;28;20635;-31
2023/01/11 09:03:33;;;;;;;13.73;3.03;;;12.10;99.90;;;;;;5047887;28;20641;-31
2023/01/11 09:06:02;;;;;;;15.57;3.37;;;12.10;99.90;;;;;;5048261;28;20699;-31
2023/01/11 09:08:32;;;;;;;19.40;3.80;;;12.10;99.90;;;;;;5047528;28;20299;-31
2023/01/11 09:11:52;;;;;;;24.70;4.20;;;12.00;99.90;;;;;;5048240;28;20278;-31
2023/01/11 09:13:49;;;;;;;18.03;3.17;;;12.00;99.90;;;;;;5047912;28;20758;-31
2023/01/11 09:16:17;;;;;;;15.43;2.90;;;12.00;99.90;;;;;;5046256;28;20208;-31
2023/01/11 09:18:44;;;;;;;19.33;3.63;;;12.00;99.90;;;;;;5047747;28;20210;-31
2023/01/11 09:21:13;;;;;;;15.33;3.00;;;11.90;99.90;;;;;;5047633;28;20232;-31
2023/01/11 09:23:43;;;;;;;21.00;4.43;;;11.90;99.90;;;;;;5047504;28;20221;-31
2023/01/11 09:26:11;;;;;;;15.07;3.20;;;11.90;99.90;;;;;;5047511;28;20200;-31
2023/01/11 09:28:38;;;;;;;13.90;2.90;;;11.90;99.90;;;;;;5047553;28;20227;-31
2023/01/11 09:31:06;;;;;;;16.97;3.20;;;11.90;99.90;;;;;;5047195;28;20254;-31
2023/01/11 09:33:34;;;;;;;20.77;3.97;;;11.90;99.90;;;;;;5047230;28;20724;-31
2023/01/11 09:36:04;;;;;;;15.10;3.10;;;11.90;99.90;;;;;;5047447;28;20268;-31
2023/01/11 09:38:33;;;;;;;22.20;3.77;;;11.90;99.90;;;;;;5046970;28;20238;-31
2023/01/11 09:41:42;;;;;;;18.97;3.03;;;11.80;99.90;;;;;;5062003;28;20232;-31
2023/01/11 09:44:20;;;;;;;16.33;3.20;;;11.80;99.90;;;;;;5044847;28;20212;-31
2023/01/11 09:46:53;;;;;;;15.90;3.10;;;11.80;99.90;;;;;;5047818;28;20676;-31
2023/01/11 09:49:33;;;;;;;19.33;3.90;;;11.80;99.90;;;;;;5047257;28;20576;-31
2023/01/11 09:52:27;;;;;;;23.20;3.60;;;11.80;99.90;;;;;;5045312;28;20285;-31
2023/01/11 09:55:01;;;;;;;21.93;3.77;;;11.80;99.90;;;;;;5047260;28;20690;-31
2023/01/11 09:57:52;;;;;;;19.57;3.20;;;11.80;99.90;;;;;;5047271;28;20452;-31
2023/01/11 10:00:31;;;;;;;17.47;3.93;;;11.80;99.90;;;;;;5061401;28;20216;-31
2023/01/11 10:03:31;;;;;;;15.63;3.63;;;11.80;99.90;;;;;;5046649;28;20191;-31
2023/01/11 10:06:24;;;;;;;18.27;4.17;;;11.90;99.90;;;;;;5045085;28;20258;-31
2023/01/11 10:09:38;;;;;;;23.67;3.77;;;11.90;99.90;;;;;;5046624;28;20208;-31
2023/01/11 10:12:42;;;;;;;18.93;4.20;;;11.90;99.90;;;;;;5038500;28;20215;-31
2023/01/11 10:15:37;;;;;;;17.83;3.70;;;11.90;99.90;;;;;;5046962;28;20212;-31
2023/01/11 10:18:44;;;;;;;18.67;3.60;;;11.90;99.90;;;;;;5045148;28;20192;-31
2023/01/11 10:21:44;;;;;;;20.03;3.97;;;11.90;99.90;;;;;;5046367;28;20243;-31
2023/01/11 10:24:29;;;;;;;16.27;3.03;;;12.00;99.90;;;;;;5046399;28;20200;-31
2023/01/11 10:27:02;;;;;;;17.40;3.83;;;12.00;99.90;;;;;;5046308;28;20606;-31
2023/01/11 10:38:39;;;;;;;19.63;3.07;;;12.00;99.90;;;;;;5044815;28;20204;-31
2023/01/11 10:41:28;;;;;;;19.47;3.30;;;12.00;99.90;;;;;;5046246;28;20710;-31
2023/01/11 10:44:10;;;;;;;21.20;3.37;;;12.00;99.90;;;;;;5046230;28;20239;-31
2023/01/11 10:46:43;;;;;;;16.33;3.63;;;12.00;99.90;;;;;;5061415;28;20246;-31
2023/01/11 10:49:38;;;;;;;15.10;3.20;;;12.00;99.90;;;;;;5046124;28;20192;-31
2023/01/11 10:52:37;;;;;;;19.53;3.20;;;11.90;99.90;;;;;;5045709;28;20283;-31
2023/01/11 10:55:15;;;;;;;17.90;3.27;;;12.00;99.90;;;;;;5048780;28;20200;-31
2023/01/11 10:58:04;;;;;;;16.57;3.30;;;12.00;99.90;;;;;;5049631;28;20250;-31
2023/01/11 11:01:07;;;;;;;18.90;3.63;;;12.00;99.90;;;;;;5049654;28;20278;-31
2023/01/11 11:04:01;;;;;;;25.47;3.50;;;12.00;99.90;;;;;;5049663;28;20200;-31
2023/01/11 11:06:41;;;;;;;17.73;4.20;;;12.00;99.90;;;;;;5049706;28;20194;-31
2023/01/11 11:09:20;;;;;;;17.10;3.93;;;12.00;99.90;;;;;;5049696;28;20222;-31
2023/01/11 11:12:08;;;;;;;15.07;3.57;;;12.10;99.90;;;;;;5049471;28;20204;-31
2023/01/11 11:14:44;;;;;;;24.73;4.20;;;12.10;99.90;;;;;;5064252;28;20224;-31
2023/01/11 11:17:29;;;;;;;17.77;3.30;;;12.10;99.90;;;;;;5049477;28;20203;-31
2023/01/11 11:19:57;;;;;;;17.83;3.50;;;12.10;99.90;;;;;;5049311;28;20243;-31
2023/01/11 11:22:26;;;;;;;21.57;3.77;;;12.10;99.90;;;;;;5049197;28;20636;-31
2023/01/11 11:24:58;;;;;;;23.53;3.40;;;12.10;99.90;;;;;;5049693;28;20623;-31
2023/01/11 11:27:37;;;;;;;15.37;3.17;;;12.10;99.90;;;;;;5049052;28;20200;-31
2023/01/11 11:30:08;;;;;;;17.13;3.13;;;12.10;99.90;;;;;;5064361;28;20239;-31
2023/01/11 11:32:43;;;;;;;19.37;3.47;;;12.10;99.90;;;;;;5064276;28;20282;-31
2023/01/11 11:35:38;;;;;;;19.97;3.70;;;12.10;99.90;;;;;;5049209;28;20200;-31
2023/01/11 11:38:06;;;;;;;19.10;3.67;;;12.20;99.90;;;;;;5048564;28;20235;-31
2023/01/11 11:40:37;;;;;;;19.70;4.10;;;12.20;99.90;;;;;;5048700;28;20222;-30
2023/01/11 11:43:25;;;;;;;18.37;3.77;;;12.20;99.90;;;;;;5064351;28;20632;-31
2023/01/11 11:46:22;;;;;;;20.53;4.07;;;12.30;99.90;;;;;;5048855;28;20277;-31
2023/01/11 11:49:07;;;;;;;21.77;4.20;;;12.30;99.90;;;;;;5048677;28;20189;-31
2023/01/11 11:51:34;;;;;;;20.17;4.03;;;12.40;99.90;;;;;;5048683;28;20803;-31
2023/01/11 11:54:02;;;;;;;12.83;3.00;;;12.40;99.90;;;;;;5049474;28;20309;-31
2023/01/11 11:56:34;;;;;;;20.53;3.67;;;12.40;99.90;;;;;;5049235;28;20204;-31
2023/01/11 11:59:08;;;;;;;20.13;3.50;;;12.50;99.90;;;;;;5049173;28;20238;-31
2023/01/11 12:01:45;;;;;;;21.17;3.53;;;12.50;99.90;;;;;;5049052;28;20227;-31
2023/01/11 12:04:19;;;;;;;26.77;4.60;;;12.50;99.90;;;;;;5048544;28;20314;-31
2023/01/11 12:07:03;;;;;;;37.73;5.63;;;12.50;99.90;;;;;;5048388;28;20559;-30
2023/01/11 12:09:35;;;;;;;17.57;4.60;;;12.60;99.90;;;;;;5048883;28;20204;-31
2023/01/11 12:12:03;;;;;;;20.23;3.70;;;12.60;99.90;;;;;;5063514;28;20247;-31
2023/01/11 12:14:36;;;;;;;38.57;5.37;;;12.50;99.90;;;;;;5047713;28;20765;-31
2023/01/11 12:17:24;;;;;;;30.37;5.10;;;12.50;99.90;;;;;;5046472;28;20197;-31
2023/01/11 12:19:54;;;;;;;34.30;5.40;;;12.60;99.90;;;;;;5048033;28;20200;-31
2023/01/11 12:22:23;;;;;;;25.10;5.10;;;12.60;99.90;;;;;;5048197;28;20608;-31
2023/01/11 12:25:14;;;;;;;24.43;4.47;;;12.70;99.90;;;;;;5048043;28;20300;-31
2023/01/11 12:28:17;;;;;;;20.10;4.50;;;12.70;99.90;;;;;;5048188;28;20189;-31
2023/01/11 12:31:10;;;;;;;31.03;5.93;;;12.70;99.90;;;;;;5046506;28;20247;-31
2023/01/11 12:33:44;;;;;;;24.93;4.80;;;12.80;99.90;;;;;;5048109;28;20885;-31
2023/01/11 12:36:28;;;;;;;24.90;4.87;;;12.70;99.90;;;;;;5048433;28;20204;-31
2023/01/11 12:39:20;;;;;;;27.63;5.30;;;12.80;99.90;;;;;;5062871;28;20338;-31
2023/01/11 12:42:15;;;;;;;34.00;5.23;;;12.80;99.90;;;;;;5048130;28;20231;-31
2023/01/11 12:44:47;;;;;;;22.57;4.60;;;12.70;99.90;;;;;;5048142;28;20971;-31
2023/01/11 12:47:47;;;;;;;26.80;5.43;;;12.70;99.90;;;;;;5047159;28;20226;-30
2023/01/11 12:50:24;;;;;;;27.60;4.83;;;12.70;99.90;;;;;;5047755;28;20678;-31
2023/01/11 12:53:19;;;;;;;23.90;4.53;;;12.70;99.90;;;;;;5048114;28;20240;-31
2023/01/11 12:56:21;;;;;;;21.17;4.43;;;12.70;99.90;;;;;;5048378;28;20652;-31
2023/01/11 12:58:55;;;;;;;18.83;4.20;;;12.70;99.90;;;;;;5048128;28;20269;-31
2023/01/11 13:01:54;;;;;;;30.80;5.13;;;12.70;99.90;;;;;;5047441;28;20228;-31
2023/01/11 13:04:48;;;;;;;25.80;4.53;;;12.70;99.90;;;;;;5047761;28;20647;-31
2023/01/11 13:07:18;;;;;;;18.13;3.47;;;12.70;99.90;;;;;;5047693;28;20287;-31
2023/01/11 13:09:51;;;;;;;20.20;3.60;;;12.70;99.90;;;;;;5047580;28;20254;-31
2023/01/11 13:12:36;;;;;;;17.43;4.00;;;12.70;99.90;;;;;;5048023;28;20282;-31
2023/01/11 13:15:15;;;;;;;20.67;3.80;;;12.80;99.90;;;;;;5062560;28;20212;-31
2023/01/11 13:18:01;;;;;;;19.27;3.23;;;12.70;99.90;;;;;;5046577;28;20624;-31
2023/01/11 13:21:14;;;;;;;18.13;4.03;;;12.80;99.90;;;;;;5045434;28;20285;-31
2023/01/11 13:23:53;;;;;;;19.97;3.73;;;12.80;99.90;;;;;;5046566;28;20212;-31
2023/01/11 13:26:42;;;;;;;14.83;3.07;;;12.80;99.90;;;;;;5047412;28;20236;-31
2023/01/11 13:29:27;;;;;;;12.33;2.67;;;12.80;99.90;;;;;;5030711;28;20275;-31
2023/01/11 13:31:58;;;;;;;15.47;3.33;;;12.80;99.90;;;;;;5047362;28;20572;-31
2023/01/11 13:34:44;;;;;;;12.60;2.57;;;12.90;99.90;;;;;;5047425;28;20192;-31
2023/01/11 13:37:23;;;;;;;16.50;3.53;;;12.90;99.90;;;;;;5047002;28;20236;-30
2023/01/11 13:40:08;;;;;;;16.80;2.70;;;12.90;99.90;;;;;;5047740;28;20239;-31
2023/01/11 13:42:47;;;;;;;16.30;3.00;;;12.90;99.90;;;;;;5047112;28;20235;-31
2023/01/11 13:45:25;;;;;;;15.17;2.90;;;12.90;99.90;;;;;;5047132;28;20262;-31
2023/01/11 13:48:04;;;;;;;11.20;2.83;;;12.90;99.90;;;;;;5047644;28;20207;-31
2023/01/11 13:50:45;;;;;;;15.60;3.00;;;12.80;99.90;;;;;;5047048;28;20725;-31
2023/01/11 13:53:21;;;;;;;12.47;3.20;;;12.80;99.90;;;;;;5046889;28;20244;-31